Fort Totten, New York
Current Conditions -  °F | °C
As of 7:01 PM on Wednesday 22 Oct 2014 (Local Time) from KLGA Reporting Station
Heavy Rain Heavy Rain  
Wind Chill: 54°   Ceiling: 1700
Heat Index: 54°   Visibility: 5mi
Dew Point: 50°   Wind: 10mph
Humidity: 88%   Direction: 360°N
Pressure: 29.81"   Gusts: 22mph
Location:  40.7918°N, 73.7759°W
Report Text: KLGA 222301Z 36009G19KT 5SM +RA BR SCT009 BKN017 OVC030 12/10 A2981 RMK AO2 P0003
Loading
Personal Weather Stations






























Interactive Weather Map
Tropical Storm Tracking
New forecast layout! Learn more

10-Day Weather Forecast

Advertisements
Track Severe Weather on mobile